createdAt,value
2018-08-10T00:01:39.274Z,99.90
2018-08-10T00:04:50.221Z,99.90
2018-08-10T00:07:21.945Z,99.90
2018-08-10T00:09:53.296Z,99.90
2018-08-10T00:12:24.924Z,99.90
2018-08-10T00:14:56.589Z,99.90
2018-08-10T00:17:28.228Z,99.90
2018-08-10T00:19:59.825Z,99.90
2018-08-10T00:22:31.304Z,99.90
2018-08-10T00:25:02.841Z,99.90
2018-08-10T00:27:34.223Z,99.90
2018-08-10T00:30:08.842Z,99.90
2018-08-10T00:32:41.471Z,99.90
2018-08-10T00:35:13.100Z,99.90
2018-08-10T00:37:45.263Z,99.90
2018-08-10T00:40:22.007Z,99.90
2018-08-10T00:42:53.577Z,99.90
2018-08-10T00:45:25.450Z,99.90
2018-08-10T00:47:57.086Z,99.90
2018-08-10T00:50:28.880Z,99.90
2018-08-10T00:53:00.506Z,99.90
2018-08-10T00:55:32.051Z,99.90
2018-08-10T00:58:03.477Z,99.90
2018-08-10T01:00:35.083Z,99.90
2018-08-10T01:03:07.267Z,99.90
2018-08-10T01:05:38.832Z,99.90
2018-08-10T01:08:10.954Z,99.90
2018-08-10T01:10:42.927Z,99.90
2018-08-10T01:13:14.814Z,99.90
2018-08-10T01:15:46.429Z,99.90
2018-08-10T01:18:18.329Z,99.90
2018-08-10T01:20:50.216Z,99.90
2018-08-10T01:23:21.622Z,99.90
2018-08-10T01:25:53.175Z,99.90
2018-08-10T01:28:25.242Z,99.90
2018-08-10T01:30:56.898Z,99.90
2018-08-10T01:33:28.490Z,99.90
2018-08-10T01:36:00.010Z,99.90
2018-08-10T01:38:31.493Z,99.90
2018-08-10T01:41:02.778Z,99.90
2018-08-10T01:43:34.256Z,99.90
2018-08-10T01:46:05.802Z,99.90
2018-08-10T01:48:37.204Z,99.90
2018-08-10T01:51:08.799Z,99.90
2018-08-10T01:53:40.536Z,99.90
2018-08-10T01:56:12.011Z,99.90
2018-08-10T01:58:43.362Z,99.90
2018-08-10T02:01:15.194Z,99.90
2018-08-10T02:03:47.072Z,99.90
2018-08-10T02:06:18.399Z,99.90
2018-08-10T02:08:50.255Z,99.90
2018-08-10T02:11:21.597Z,99.90
2018-08-10T02:13:53.090Z,99.90
2018-08-10T02:16:24.830Z,99.90
2018-08-10T02:18:56.392Z,99.90
2018-08-10T02:21:27.979Z,99.90
2018-08-10T02:23:59.411Z,99.90
2018-08-10T02:26:31.267Z,99.90
2018-08-10T02:29:02.869Z,99.90
2018-08-10T02:31:34.414Z,99.90
2018-08-10T02:34:06.389Z,99.90
2018-08-10T02:36:38.110Z,99.90
2018-08-10T02:39:12.303Z,99.90
2018-08-10T02:41:44.054Z,99.90
2018-08-10T02:44:15.765Z,99.90
2018-08-10T02:46:47.370Z,99.90
2018-08-10T02:49:19.203Z,99.90
2018-08-10T02:51:50.846Z,99.90
2018-08-10T02:54:22.669Z,99.90
2018-08-10T02:56:54.012Z,99.90
2018-08-10T02:59:25.542Z,99.90
2018-08-10T03:01:57.190Z,99.90
2018-08-10T03:04:29.100Z,99.90
2018-08-10T03:07:00.631Z,99.90
2018-08-10T03:09:32.205Z,99.90
2018-08-10T03:12:03.809Z,99.90
2018-08-10T03:14:35.398Z,99.90
2018-08-10T03:17:07.023Z,99.90
2018-08-10T03:19:38.814Z,99.90
2018-08-10T03:22:10.674Z,99.90
2018-08-10T03:24:42.624Z,99.90
2018-08-10T03:27:13.946Z,99.90
2018-08-10T03:29:45.376Z,99.90
2018-08-10T03:32:17.150Z,99.90
2018-08-10T03:34:48.600Z,99.90
2018-08-10T03:37:20.247Z,99.90
2018-08-10T03:39:51.919Z,99.90
2018-08-10T03:42:23.632Z,99.90
2018-08-10T03:44:55.024Z,99.90
2018-08-10T03:47:26.759Z,99.90
2018-08-10T03:49:58.692Z,99.90
2018-08-10T03:52:30.248Z,99.90
2018-08-10T03:55:01.937Z,99.90
2018-08-10T03:57:33.719Z,99.90
2018-08-10T04:00:06.614Z,99.90
2018-08-10T04:02:38.503Z,99.90
2018-08-10T04:05:11.320Z,99.90
2018-08-10T04:07:43.205Z,99.90
2018-08-10T04:10:14.772Z,99.90
2018-08-10T04:12:46.521Z,99.90
2018-08-10T04:15:18.335Z,99.90
2018-08-10T04:17:49.964Z,99.90
2018-08-10T04:20:21.746Z,99.90
2018-08-10T04:22:53.628Z,99.90
2018-08-10T04:25:25.101Z,99.90
2018-08-10T04:27:56.722Z,99.90
2018-08-10T04:30:28.260Z,99.90
2018-08-10T04:33:00.123Z,99.90
2018-08-10T04:35:31.478Z,99.90
2018-08-10T04:38:02.897Z,99.90
2018-08-10T04:40:34.595Z,99.90
2018-08-10T04:43:06.009Z,99.90
2018-08-10T04:45:37.513Z,99.90
2018-08-10T04:48:08.997Z,99.90
2018-08-10T04:50:40.811Z,99.90
2018-08-10T04:53:12.341Z,99.90
2018-08-10T04:55:44.031Z,99.90
2018-08-10T04:58:15.875Z,99.90
2018-08-10T05:00:48.432Z,99.90
2018-08-10T05:03:20.066Z,99.90
2018-08-10T05:05:51.506Z,99.90
2018-08-10T05:08:22.944Z,99.90
2018-08-10T05:10:54.542Z,99.90
2018-08-10T05:13:26.186Z,99.90
2018-08-10T05:15:57.650Z,99.90
2018-08-10T05:18:29.524Z,99.90
2018-08-10T05:21:01.086Z,99.90
2018-08-10T05:23:32.685Z,99.90
2018-08-10T05:26:04.058Z,99.90
2018-08-10T05:28:35.615Z,99.90
2018-08-10T05:31:07.320Z,99.90
2018-08-10T05:33:39.090Z,99.90
2018-08-10T05:36:10.702Z,99.90
2018-08-10T05:38:42.199Z,99.90
2018-08-10T05:41:13.790Z,99.90
2018-08-10T05:43:45.275Z,99.90
2018-08-10T05:46:16.749Z,99.90
2018-08-10T05:48:48.435Z,99.90
2018-08-10T05:51:19.629Z,99.90
2018-08-10T05:53:51.302Z,99.90
2018-08-10T05:56:22.810Z,99.90
2018-08-10T05:58:54.867Z,99.90
2018-08-10T06:01:26.216Z,99.90
2018-08-10T06:03:57.621Z,99.90
2018-08-10T06:06:29.003Z,99.90
2018-08-10T06:09:00.378Z,99.90
2018-08-10T06:11:31.894Z,99.90
2018-08-10T06:14:03.514Z,99.90
2018-08-10T06:16:35.214Z,99.90
2018-08-10T06:19:06.822Z,99.90
2018-08-10T06:21:38.609Z,99.90
2018-08-10T06:24:10.205Z,99.90
2018-08-10T06:26:41.453Z,99.90
2018-08-10T06:29:12.775Z,99.90
2018-08-10T06:31:44.140Z,99.90
2018-08-10T06:34:15.495Z,99.90
2018-08-10T06:36:46.759Z,99.90
2018-08-10T06:39:18.401Z,99.90
2018-08-10T06:41:49.929Z,99.80
2018-08-10T06:44:21.403Z,99.60
2018-08-10T06:46:53.143Z,99.60
2018-08-10T06:49:24.513Z,99.80
2018-08-10T06:51:56.064Z,99.60
2018-08-10T06:54:27.553Z,98.70
2018-08-10T06:56:59.000Z,98.50
2018-08-10T06:59:30.212Z,98.10
2018-08-10T07:02:01.852Z,97.70
2018-08-10T07:04:33.331Z,97.30
2018-08-10T07:07:04.734Z,96.60
2018-08-10T07:09:36.064Z,96.70
2018-08-10T07:12:07.729Z,96.30
2018-08-10T07:14:39.141Z,95.70
2018-08-10T07:17:10.566Z,95.30
2018-08-10T07:19:42.011Z,94.90
2018-08-10T07:22:13.653Z,94.10
2018-08-10T07:24:44.941Z,93.80
2018-08-10T07:27:16.601Z,93.30
2018-08-10T07:29:47.842Z,92.50
2018-08-10T07:32:19.188Z,91.80
2018-08-10T07:34:50.719Z,91.40
2018-08-10T07:37:22.142Z,90.60
2018-08-10T07:39:53.584Z,89.30
2018-08-10T07:42:24.976Z,89.50
2018-08-10T07:44:56.361Z,88.60
2018-08-10T07:47:27.829Z,88.80
2018-08-10T07:49:59.282Z,88.30
2018-08-10T07:52:30.692Z,88.40
2018-08-10T07:55:02.042Z,88.00
2018-08-10T07:57:33.714Z,86.70
2018-08-10T08:00:05.859Z,87.50
2018-08-10T08:02:37.933Z,86.30
2018-08-10T08:05:10.009Z,85.60
2018-08-10T08:07:41.592Z,85.80
2018-08-10T08:10:12.768Z,87.50
2018-08-10T08:12:44.500Z,88.80
2018-08-10T08:15:16.019Z,89.40
2018-08-10T08:17:47.443Z,87.30
2018-08-10T08:20:19.294Z,87.50
2018-08-10T08:22:55.253Z,87.70
2018-08-10T08:25:27.087Z,88.50
2018-08-10T08:27:58.637Z,88.50
2018-08-10T08:30:30.183Z,88.70
2018-08-10T08:33:01.655Z,88.60
2018-08-10T08:35:33.151Z,89.00
2018-08-10T08:38:20.257Z,89.30
2018-08-10T08:40:52.367Z,89.50
2018-08-10T08:45:51.703Z,89.30
2018-08-10T08:48:23.550Z,88.40
2018-08-10T08:50:56.717Z,85.60
2018-08-10T08:53:28.314Z,82.50
2018-08-10T08:56:07.233Z,81.00
2018-08-10T08:58:39.492Z,79.20
2018-08-10T09:01:11.550Z,78.30
2018-08-10T09:05:01.335Z,78.50
2018-08-10T09:07:33.019Z,79.00
2018-08-10T09:10:10.524Z,79.60
2018-08-10T09:12:42.035Z,79.60
2018-08-10T09:15:16.514Z,78.60
2018-08-10T09:17:48.002Z,78.80
2018-08-10T09:20:19.574Z,78.20
2018-08-10T09:22:51.132Z,78.60
2018-08-10T09:25:22.793Z,79.30
2018-08-10T09:27:54.311Z,79.50
2018-08-10T09:30:25.860Z,80.60
2018-08-10T09:32:57.851Z,80.70
2018-08-10T09:35:29.351Z,81.30
2018-08-10T09:38:01.316Z,79.70
2018-08-10T09:40:32.724Z,78.80
2018-08-10T09:43:04.191Z,77.10
2018-08-10T09:45:35.781Z,75.50
2018-08-10T09:48:07.584Z,74.00
2018-08-10T09:50:38.909Z,74.40
2018-08-10T09:53:10.331Z,74.70
2018-08-10T09:55:41.670Z,74.60
2018-08-10T09:58:18.876Z,73.90
2018-08-10T10:00:55.451Z,73.60
2018-08-10T10:03:27.059Z,72.70
2018-08-10T10:06:00.108Z,72.60
2018-08-10T10:08:31.515Z,72.20
2018-08-10T10:11:03.027Z,71.70
2018-08-10T10:13:34.520Z,70.80
2018-08-10T10:16:06.147Z,71.60
2018-08-10T10:18:37.620Z,73.00
2018-08-10T10:21:09.344Z,73.20
2018-08-10T10:23:40.809Z,72.80
2018-08-10T10:26:12.656Z,71.50
2018-08-10T10:28:44.490Z,70.60
2018-08-10T10:31:15.981Z,70.20
2018-08-10T10:33:47.986Z,70.90
2018-08-10T10:36:19.558Z,70.30
2018-08-10T10:38:51.117Z,68.70
2018-08-10T10:41:22.737Z,68.00
2018-08-10T10:43:54.539Z,68.00
2018-08-10T10:46:26.128Z,67.70
2018-08-10T10:48:57.758Z,67.60
2018-08-10T10:51:29.370Z,66.80
2018-08-10T10:54:00.883Z,67.30
2018-08-10T10:56:32.648Z,67.60
2018-08-10T10:59:04.371Z,69.60
2018-08-10T11:01:35.858Z,69.70
2018-08-10T11:04:07.490Z,69.10
2018-08-10T11:06:38.961Z,68.50
2018-08-10T11:09:10.700Z,67.70
2018-08-10T11:11:42.478Z,67.90
2018-08-10T11:14:14.041Z,67.70
2018-08-10T11:16:45.410Z,67.60
2018-08-10T11:19:16.600Z,68.20
2018-08-10T11:21:48.128Z,68.50
2018-08-10T11:24:19.847Z,69.40
2018-08-10T11:26:51.637Z,70.50
2018-08-10T11:29:23.175Z,71.30
2018-08-10T11:31:54.728Z,71.30
2018-08-10T11:34:26.419Z,71.40
2018-08-10T11:36:57.975Z,72.00
2018-08-10T11:39:29.638Z,70.90
2018-08-10T11:42:01.185Z,70.90
2018-08-10T11:44:32.648Z,71.50
2018-08-10T11:47:04.419Z,71.90
2018-08-10T11:49:35.952Z,72.00
2018-08-10T11:52:07.722Z,73.20
2018-08-10T11:54:39.197Z,72.80
2018-08-10T11:57:10.636Z,73.80
2018-08-10T11:59:42.187Z,73.50
2018-08-10T12:02:13.772Z,72.90
2018-08-10T12:04:45.377Z,72.80
2018-08-10T12:07:17.056Z,72.40
2018-08-10T12:09:49.094Z,74.30
2018-08-10T12:12:20.735Z,74.60
2018-08-10T12:14:52.407Z,75.10
2018-08-10T12:17:23.974Z,75.10
2018-08-10T12:19:55.652Z,74.10
2018-08-10T12:22:27.092Z,73.40
2018-08-10T12:24:58.614Z,73.00
2018-08-10T12:27:30.091Z,73.60
2018-08-10T12:30:01.843Z,73.80
2018-08-10T12:32:33.229Z,73.20
2018-08-10T12:35:04.703Z,72.90
2018-08-10T12:37:36.154Z,74.50
2018-08-10T12:40:07.764Z,74.50
2018-08-10T12:42:39.579Z,74.70
2018-08-10T12:45:11.048Z,75.90
2018-08-10T12:47:42.658Z,76.40
2018-08-10T12:50:14.139Z,76.50
2018-08-10T12:52:45.629Z,76.30
2018-08-10T12:55:17.160Z,76.70
2018-08-10T12:57:48.647Z,77.10
2018-08-10T13:00:19.950Z,76.40
2018-08-10T13:02:51.452Z,76.40
2018-08-10T13:05:22.955Z,76.40
2018-08-10T13:07:54.396Z,77.00
2018-08-10T13:10:25.642Z,77.60
2018-08-10T13:12:57.263Z,78.00
2018-08-10T13:15:28.804Z,77.70
2018-08-10T13:18:00.329Z,78.10
2018-08-10T13:20:32.040Z,77.80
2018-08-10T13:23:03.402Z,77.40
2018-08-10T13:25:34.757Z,77.50
2018-08-10T13:28:06.760Z,77.20
2018-08-10T13:30:38.230Z,78.20
2018-08-10T13:33:09.757Z,78.10
2018-08-10T13:35:41.295Z,79.00
2018-08-10T13:38:13.009Z,79.10
2018-08-10T13:40:44.655Z,79.20
2018-08-10T13:43:16.160Z,79.10
2018-08-10T13:45:48.114Z,79.30
2018-08-10T13:48:19.813Z,79.30
2018-08-10T13:50:51.685Z,79.80
2018-08-10T13:53:23.035Z,79.80
2018-08-10T13:55:54.534Z,80.40
2018-08-10T13:58:26.084Z,80.80
2018-08-10T14:00:57.720Z,81.20
2018-08-10T14:03:29.196Z,81.80
2018-08-10T14:06:00.786Z,82.40
2018-08-10T14:08:33.022Z,83.10
2018-08-10T14:11:04.734Z,83.10
2018-08-10T14:13:36.133Z,83.00
2018-08-10T14:16:07.663Z,83.50
2018-08-10T14:18:40.049Z,83.30
2018-08-10T14:21:11.883Z,83.30
2018-08-10T14:23:43.473Z,83.60
2018-08-10T14:26:14.895Z,83.80
2018-08-10T14:28:46.409Z,83.00
2018-08-10T14:31:18.000Z,83.10
2018-08-10T14:33:49.481Z,83.00
2018-08-10T14:36:20.807Z,83.10
2018-08-10T14:38:52.260Z,83.10
2018-08-10T14:41:23.944Z,82.50
2018-08-10T14:43:55.744Z,81.80
2018-08-10T14:46:27.311Z,81.80
2018-08-10T14:48:58.613Z,81.80
2018-08-10T14:51:30.102Z,81.20
2018-08-10T14:54:01.525Z,81.50
2018-08-10T14:56:33.042Z,81.10
2018-08-10T14:59:04.501Z,80.40
2018-08-10T15:01:35.905Z,80.30
2018-08-10T15:04:07.348Z,80.00
2018-08-10T15:06:39.381Z,79.90
2018-08-10T15:09:13.304Z,80.90
2018-08-10T15:11:45.242Z,80.60
2018-08-10T15:14:16.828Z,81.40
2018-08-10T15:16:48.483Z,80.80
2018-08-10T15:19:20.265Z,81.10
2018-08-10T15:21:51.793Z,81.60
2018-08-10T15:24:23.265Z,81.70
2018-08-10T15:26:54.809Z,81.80
2018-08-10T15:29:26.315Z,82.10
2018-08-10T15:31:57.935Z,81.70
2018-08-10T15:34:30.870Z,82.60
2018-08-10T15:37:02.145Z,82.90
2018-08-10T15:39:33.863Z,82.60
2018-08-10T15:42:05.411Z,82.40
2018-08-10T15:44:36.822Z,82.30
2018-08-10T15:47:08.606Z,81.80
2018-08-10T15:49:40.512Z,81.60
2018-08-10T15:52:12.029Z,81.50
2018-08-10T15:54:43.374Z,81.60
2018-08-10T15:57:15.079Z,81.20
2018-08-10T15:59:46.983Z,81.00
2018-08-10T16:02:18.668Z,81.20
2018-08-10T16:04:50.331Z,81.00
2018-08-10T16:07:21.698Z,81.60
2018-08-10T16:09:53.178Z,81.50
2018-08-10T16:12:24.647Z,81.80
2018-08-10T16:14:56.099Z,81.90
2018-08-10T16:17:27.614Z,82.20
2018-08-10T16:19:59.261Z,82.80
2018-08-10T16:22:30.720Z,82.80
2018-08-10T16:25:02.319Z,82.70
2018-08-10T16:27:33.823Z,83.30
2018-08-10T16:30:06.402Z,83.60
2018-08-10T16:32:38.205Z,83.60
2018-08-10T16:35:12.612Z,84.20
2018-08-10T16:37:45.516Z,85.00
2018-08-10T16:40:18.290Z,87.60
2018-08-10T16:42:49.904Z,91.00
2018-08-10T16:45:21.559Z,92.10
2018-08-10T16:47:52.969Z,92.70
2018-08-10T16:50:24.571Z,94.00
2018-08-10T16:52:56.151Z,95.30
2018-08-10T16:55:27.848Z,96.20
2018-08-10T16:57:59.344Z,96.80
2018-08-10T17:00:30.913Z,97.70
2018-08-10T17:03:02.287Z,97.70
2018-08-10T17:05:33.866Z,98.10
2018-08-10T17:08:05.362Z,98.90
2018-08-10T17:10:36.849Z,99.60
2018-08-10T17:13:08.316Z,99.90
2018-08-10T17:15:39.711Z,99.90
2018-08-10T17:18:11.202Z,99.90
2018-08-10T17:20:42.578Z,99.90
2018-08-10T17:23:13.960Z,99.90
2018-08-10T17:25:45.546Z,99.90
2018-08-10T17:28:17.173Z,99.90
2018-08-10T17:30:48.906Z,99.90
2018-08-10T17:33:20.369Z,99.90
2018-08-10T17:35:51.713Z,99.90
2018-08-10T17:38:23.299Z,99.90
2018-08-10T17:40:54.926Z,99.90
2018-08-10T17:43:26.262Z,99.90
2018-08-10T17:45:57.795Z,99.90
2018-08-10T17:48:29.292Z,99.90
2018-08-10T17:51:00.907Z,99.90
2018-08-10T17:53:32.559Z,99.90
2018-08-10T17:56:04.320Z,99.90
2018-08-10T17:58:36.249Z,99.90
2018-08-10T18:01:07.866Z,99.90
2018-08-10T18:03:39.456Z,99.90
2018-08-10T18:06:11.023Z,99.90
2018-08-10T18:08:42.674Z,99.90
2018-08-10T18:11:14.126Z,99.90
2018-08-10T18:13:45.639Z,99.90
2018-08-10T18:16:17.015Z,99.90
2018-08-10T18:18:48.648Z,99.90
2018-08-10T18:21:20.546Z,99.90
2018-08-10T18:23:52.035Z,99.90
2018-08-10T18:26:23.979Z,99.90
2018-08-10T18:28:55.367Z,99.90
2018-08-10T18:31:26.942Z,99.90
2018-08-10T18:33:58.533Z,99.90
2018-08-10T18:36:30.137Z,99.90
2018-08-10T18:39:01.735Z,99.90
2018-08-10T18:41:33.256Z,99.90
2018-08-10T18:44:05.138Z,99.90
2018-08-10T18:46:36.588Z,99.90
2018-08-10T18:49:08.321Z,99.90
2018-08-10T18:51:39.984Z,99.90
2018-08-10T18:54:11.551Z,99.90
2018-08-10T18:56:42.846Z,99.90
2018-08-10T18:59:14.670Z,99.90
2018-08-10T19:01:45.951Z,99.90
2018-08-10T19:04:17.430Z,99.90
2018-08-10T19:06:48.880Z,99.90
2018-08-10T19:09:20.104Z,99.90
2018-08-10T19:11:51.847Z,99.90
2018-08-10T19:14:23.672Z,99.90
2018-08-10T19:16:55.374Z,99.90
2018-08-10T19:19:27.183Z,99.90
2018-08-10T19:21:58.650Z,99.90
2018-08-10T19:24:30.244Z,99.90
2018-08-10T19:27:01.729Z,99.90
2018-08-10T19:29:33.121Z,99.90
2018-08-10T19:32:04.586Z,99.90
2018-08-10T19:34:36.495Z,99.90
2018-08-10T19:37:07.951Z,99.90
2018-08-10T19:39:39.587Z,99.90
2018-08-10T19:42:11.341Z,99.90
2018-08-10T19:44:42.885Z,99.90
2018-08-10T19:47:14.496Z,99.90
2018-08-10T19:49:46.064Z,99.90
2018-08-10T19:52:17.455Z,99.90
2018-08-10T19:54:48.926Z,99.90
2018-08-10T19:57:20.554Z,99.90
2018-08-10T19:59:52.045Z,99.90
2018-08-10T20:02:23.780Z,99.90
2018-08-10T20:04:55.259Z,99.90
2018-08-10T20:07:27.110Z,99.90
2018-08-10T20:09:58.619Z,99.90
2018-08-10T20:12:30.202Z,99.90
2018-08-10T20:15:01.931Z,99.90
2018-08-10T20:17:33.420Z,99.90
2018-08-10T20:20:05.597Z,99.90
2018-08-10T20:22:37.333Z,99.90
2018-08-10T20:25:09.807Z,99.90
2018-08-10T20:27:41.376Z,99.90
2018-08-10T20:30:16.303Z,99.90
2018-08-10T20:32:48.439Z,99.90
2018-08-10T20:35:21.219Z,99.90
2018-08-10T20:37:53.239Z,99.90
2018-08-10T20:40:24.806Z,99.90
2018-08-10T20:42:56.773Z,99.90
2018-08-10T20:45:28.306Z,99.90
2018-08-10T20:47:59.867Z,99.90
2018-08-10T20:50:31.596Z,99.90
2018-08-10T20:53:03.341Z,99.90
2018-08-10T20:55:34.876Z,99.90
2018-08-10T20:58:06.453Z,99.90
2018-08-10T21:00:38.477Z,99.90
2018-08-10T21:03:09.897Z,99.90
2018-08-10T21:05:41.555Z,99.90
2018-08-10T21:08:12.986Z,99.90
2018-08-10T21:10:44.500Z,99.90
2018-08-10T21:13:16.019Z,99.90
2018-08-10T21:15:47.616Z,99.90
2018-08-10T21:18:19.452Z,99.90
2018-08-10T21:20:50.973Z,99.90
2018-08-10T21:23:22.533Z,99.90
2018-08-10T21:25:54.072Z,99.90
2018-08-10T21:28:25.483Z,99.90
2018-08-10T21:30:57.024Z,99.90
2018-08-10T21:33:28.500Z,99.90
2018-08-10T21:35:59.965Z,99.90
2018-08-10T21:38:31.507Z,99.90
2018-08-10T21:41:02.872Z,99.90
2018-08-10T21:43:34.584Z,99.90
2018-08-10T21:46:06.104Z,99.90
2018-08-10T21:48:37.781Z,99.90
2018-08-10T21:51:09.363Z,99.90
2018-08-10T21:53:40.899Z,99.90
2018-08-10T21:56:12.231Z,99.90
2018-08-10T21:58:43.915Z,99.90
2018-08-10T22:01:15.450Z,99.90
2018-08-10T22:03:46.905Z,99.90
2018-08-10T22:06:18.287Z,99.90
2018-08-10T22:08:49.801Z,99.90
2018-08-10T22:11:21.354Z,99.90
2018-08-10T22:13:57.973Z,99.90
2018-08-10T22:16:34.554Z,99.90
2018-08-10T22:19:11.201Z,99.90
2018-08-10T22:21:43.230Z,99.90
2018-08-10T22:24:15.405Z,99.90
2018-08-10T22:26:46.818Z,99.90
2018-08-10T22:29:18.557Z,99.90
2018-08-10T22:31:49.996Z,99.90
2018-08-10T22:34:21.735Z,99.90
2018-08-10T22:36:52.891Z,99.90
2018-08-10T22:39:24.201Z,99.90
2018-08-10T22:41:55.772Z,99.90
2018-08-10T22:44:27.287Z,99.90
2018-08-10T22:46:58.757Z,99.90
2018-08-10T22:49:30.181Z,99.90
2018-08-10T22:52:01.866Z,99.90
2018-08-10T22:54:33.252Z,99.90
2018-08-10T22:57:04.730Z,99.90
2018-08-10T22:59:36.227Z,99.90
2018-08-10T23:02:07.778Z,99.90
2018-08-10T23:04:39.243Z,99.90
2018-08-10T23:07:10.803Z,99.90
2018-08-10T23:09:42.268Z,99.90
2018-08-10T23:12:14.037Z,99.90
2018-08-10T23:14:45.450Z,99.90
2018-08-10T23:17:16.979Z,99.90
2018-08-10T23:19:48.417Z,99.90
2018-08-10T23:22:19.963Z,99.90
2018-08-10T23:24:51.527Z,99.90
2018-08-10T23:27:23.034Z,99.90
2018-08-10T23:29:54.689Z,99.90
2018-08-10T23:32:26.349Z,99.90
2018-08-10T23:34:57.923Z,99.90
2018-08-10T23:37:29.486Z,99.90
2018-08-10T23:40:01.099Z,99.90
2018-08-10T23:42:32.523Z,99.90
2018-08-10T23:45:03.891Z,99.90
2018-08-10T23:47:35.392Z,99.90
2018-08-10T23:50:10.136Z,99.90
2018-08-10T23:52:41.967Z,99.90
2018-08-10T23:55:14.145Z,99.90
2018-08-10T23:57:45.740Z,99.90
